Time;durP1;ratioP1;P1;durP2;ratioP2;P2;SDS_P1;SDS_P2;PMS_P1;PMS_P2;Temp;Humidity;BMP_temperature;BMP_pressure;BME280_temperature;BME280_humidity;BME280_pressure;Samples;Min_cycle;Max_cycle;Signal;HPM_P1;HPM_P2
2022/01/30 00:01:16;;;;;;;16.48;2.75;;;;;;;4.87;100.00;100870.91;6049921;29;20052;-85
2022/01/30 00:04:24;;;;;;;13.27;2.42;;;;;;;4.80;100.00;100856.72;6038015;29;20046;-85
2022/01/30 00:07:26;;;;;;;12.38;2.58;;;;;;;4.67;100.00;100843.66;6037316;29;20490;-85
2022/01/30 00:10:31;;;;;;;15.55;2.50;;;;;;;4.72;100.00;100840.84;6039827;29;20503;-85
2022/01/30 00:13:34;;;;;;;16.08;3.17;;;;;;;4.79;100.00;100823.44;6036891;29;20030;-85
2022/01/30 00:16:37;;;;;;;14.05;2.88;;;;;;;4.72;100.00;100836.59;6026863;29;20052;-85
2022/01/30 00:22:48;;;;;;;11.73;2.22;;;;;;;4.85;100.00;100853.94;6034888;29;20049;-85
2022/01/30 00:25:53;;;;;;;11.50;2.22;;;;;;;4.91;100.00;100851.84;6040787;29;20049;-85
2022/01/30 00:28:55;;;;;;;13.82;2.92;;;;;;;4.88;100.00;100862.28;6039187;29;20041;-85
2022/01/30 00:31:57;;;;;;;15.02;3.50;;;;;;;4.92;100.00;100853.53;6041027;29;20043;-85
2022/01/30 00:35:21;;;;;;;13.30;2.85;;;;;;;4.95;100.00;100850.00;6048293;29;20120;-85
2022/01/30 00:38:26;;;;;;;14.90;2.80;;;;;;;4.90;100.00;100868.16;6047728;29;20204;-85
2022/01/30 00:41:28;;;;;;;11.52;2.72;;;;;;;4.96;100.00;100877.28;6064848;29;20041;-85
2022/01/30 00:44:30;;;;;;;15.95;2.60;;;;;;;5.02;100.00;100871.00;6054035;29;20127;-85
2022/01/30 00:47:32;;;;;;;14.88;2.70;;;;;;;4.99;100.00;100850.66;6046339;29;20219;-85
2022/01/30 00:50:35;;;;;;;13.75;2.63;;;;;;;5.00;100.00;100877.97;6041121;29;20057;-85
2022/01/30 00:53:38;;;;;;;14.93;3.25;;;;;;;5.00;100.00;100863.41;6053332;29;20053;-85
2022/01/30 00:56:40;;;;;;;20.80;3.13;;;;;;;5.01;100.00;100883.00;6036644;29;20102;-84
2022/01/30 00:59:42;;;;;;;16.40;4.18;;;;;;;5.03;100.00;100894.03;6045214;29;20053;-85
2022/01/30 01:02:45;;;;;;;13.55;2.80;;;;;;;5.08;100.00;100907.47;6037326;29;20065;-85
2022/01/30 01:05:49;;;;;;;15.82;3.00;;;;;;;5.11;100.00;100899.59;6038187;29;20065;-84
2022/01/30 01:08:57;;;;;;;13.80;2.38;;;;;;;5.04;100.00;100916.22;6045053;29;20102;-84
2022/01/30 01:25:21;;;;;;;14.77;3.10;;;;;;;4.92;100.00;100942.50;6045460;29;20072;-84
2022/01/30 01:28:24;;;;;;;16.13;3.00;;;;;;;4.93;100.00;100950.09;6047801;29;20131;-84
2022/01/30 01:31:26;;;;;;;14.38;2.40;;;;;;;4.89;100.00;100927.22;6037756;29;20049;-84
2022/01/30 01:34:35;;;;;;;16.17;2.40;;;;;;;4.88;100.00;100956.34;6041158;29;20086;-84
2022/01/30 01:37:37;;;;;;;15.98;2.70;;;;;;;4.87;100.00;100926.47;6040252;29;20053;-84
2022/01/30 01:40:41;;;;;;;19.63;2.80;;;;;;;4.73;100.00;100943.34;6037005;29;20057;-84
2022/01/30 01:43:43;;;;;;;11.38;2.67;;;;;;;4.72;100.00;100946.84;6038895;29;20053;-84
2022/01/30 01:46:47;;;;;;;14.98;2.67;;;;;;;4.72;100.00;100918.63;6039800;29;20636;-84
2022/01/30 01:49:51;;;;;;;10.50;1.83;;;;;;;4.70;100.00;100917.06;6042889;29;20401;-84
2022/01/30 01:52:54;;;;;;;13.85;2.55;;;;;;;4.72;100.00;100946.84;6048184;29;20076;-84
2022/01/30 01:56:02;;;;;;;11.68;2.55;;;;;;;4.69;100.00;100935.88;6050445;29;20045;-84
2022/01/30 01:59:05;;;;;;;12.10;2.88;;;;;;;4.66;100.00;100934.28;6055019;29;20134;-84
2022/01/30 02:02:43;;;;;;;15.68;3.05;;;;;;;4.62;100.00;100949.91;6040358;29;20461;-84
2022/01/30 02:05:52;;;;;;;9.02;2.13;;;;;;;4.69;100.00;100912.81;6044832;29;20499;-84
2022/01/30 02:08:58;;;;;;;15.00;2.67;;;;;;;4.70;100.00;100917.06;6053424;29;20049;-84
2022/01/30 02:12:02;;;;;;;15.13;3.22;;;;;;;4.67;100.00;100914.59;6051349;29;20384;-84
2022/01/30 02:23:53;;;;;;;16.88;2.65;;;;;;;4.67;100.00;100918.03;6044027;29;20053;-84
2022/01/30 02:25:40;;;;;;;10.30;2.95;;;;;;;4.56;100.00;100896.38;6042748;29;20478;-84
2022/01/30 02:28:42;;;;;;;11.55;2.35;;;;;;;4.57;100.00;100905.69;6040325;29;20139;-84
2022/01/30 02:31:45;;;;;;;12.63;2.65;;;;;;;4.49;100.00;100896.63;6049438;29;20057;-84
2022/01/30 02:34:54;;;;;;;15.05;3.90;;;;;;;4.46;100.00;100878.84;6047671;29;20085;-84
2022/01/30 02:38:00;;;;;;;14.75;2.80;;;;;;;4.37;100.00;100881.03;6049582;29;20084;-84
2022/01/30 02:41:02;;;;;;;15.82;2.55;;;;;;;4.46;100.00;100894.22;6035434;29;20057;-84
2022/01/30 02:51:10;;;;;;;16.63;2.08;;;;;;;4.07;100.00;100879.84;6058802;29;20060;-84
2022/01/30 02:54:13;;;;;;;15.32;2.53;;;;;;;4.06;100.00;100877.34;6043696;29;20055;-84
2022/01/30 02:57:17;;;;;;;18.95;3.78;;;;;;;4.18;100.00;100891.31;6045338;29;20056;-84
2022/01/30 03:00:21;;;;;;;10.80;2.30;;;;;;;4.26;100.00;100891.78;6047327;29;20769;-84
2022/01/30 03:03:22;;;;;;;12.23;3.03;;;;;;;4.30;100.00;100893.31;6051347;29;20059;-84
2022/01/30 03:06:26;;;;;;;12.50;2.25;;;;;;;4.30;100.00;100891.56;6051850;29;20049;-84
2022/01/30 03:09:28;;;;;;;16.00;2.63;;;;;;;4.31;100.00;100890.66;6049517;29;20049;-84
2022/01/30 03:12:31;;;;;;;14.15;2.63;;;;;;;4.36;100.00;100917.81;6061712;29;20830;-84
2022/01/30 03:15:35;;;;;;;14.75;2.13;;;;;;;4.26;100.00;100925.09;6036005;29;20045;-84
2022/01/30 03:18:37;;;;;;;13.40;2.78;;;;;;;4.22;100.00;100915.88;6062357;29;20048;-84
2022/01/30 03:21:40;;;;;;;16.15;3.20;;;;;;;4.19;100.00;100905.78;6046527;29;20201;-84
2022/01/30 03:24:42;;;;;;;10.60;2.08;;;;;;;4.21;100.00;100896.28;6048170;29;20068;-84
2022/01/30 03:28:04;;;;;;;15.45;2.90;;;;;;;4.27;100.00;100919.06;6032518;29;20054;-84
2022/01/30 03:31:12;;;;;;;15.70;2.28;;;;;;;4.33;100.00;100923.91;6054737;29;20152;-84
2022/01/30 03:34:19;;;;;;;15.63;3.47;;;;;;;4.40;100.00;100950.09;6039857;29;20488;-84
2022/01/30 03:37:27;;;;;;;15.77;2.38;;;;;;;4.38;100.00;100942.47;6039112;29;20045;-84
2022/01/30 03:40:29;;;;;;;16.13;3.22;;;;;;;4.25;100.00;100928.56;6051130;29;20057;-84
2022/01/30 03:43:31;;;;;;;14.40;3.78;;;;;;;4.11;100.00;100918.94;6035424;29;20754;-84
2022/01/30 03:46:35;;;;;;;14.68;2.90;;;;;;;4.09;100.00;100915.63;6032464;29;20427;-84
2022/01/30 03:49:55;;;;;;;18.60;3.47;;;;;;;4.17;100.00;100907.56;6064302;29;20056;-84
2022/01/30 03:52:59;;;;;;;14.80;2.95;;;;;;;4.20;100.00;100967.22;6052172;29;20089;-84
2022/01/30 03:56:01;;;;;;;14.75;2.53;;;;;;;4.23;100.00;101005.50;6030387;29;20068;-84
2022/01/30 03:59:06;;;;;;;17.30;2.58;;;;;;;4.27;100.00;100944.69;6033064;29;20057;-84
2022/01/30 04:02:09;;;;;;;16.65;2.95;;;;;;;4.19;100.00;100947.59;6068689;29;20080;-84
2022/01/30 04:05:25;;;;;;;14.98;2.08;;;;;;;4.08;100.00;100939.59;6046958;29;20544;-84
2022/01/30 04:08:27;;;;;;;13.70;2.38;;;;;;;3.95;100.00;100961.50;6051705;29;20047;-84
2022/01/30 04:11:50;;;;;;;12.35;1.90;;;;;;;3.85;100.00;100974.72;6052056;29;20081;-84
2022/01/30 04:15:18;;;;;;;11.38;2.35;;;;;;;3.83;100.00;100991.88;6039381;29;20049;-84
2022/01/30 04:18:32;;;;;;;12.82;2.28;;;;;;;3.79;100.00;101035.59;6054185;29;20056;-84
2022/01/30 04:22:00;;;;;;;13.02;2.55;;;;;;;3.88;100.00;100984.00;6051291;29;20084;-84
2022/01/30 04:25:32;;;;;;;13.65;2.30;;;;;;;3.90;100.00;100982.22;6077237;29;20064;-84
2022/01/30 04:28:54;;;;;;;14.15;3.00;;;;;;;3.90;100.00;100984.78;6043297;29;20125;-84
2022/01/30 04:32:14;;;;;;;9.07;2.33;;;;;;;3.84;100.00;101028.56;6045856;29;20145;-84
2022/01/30 04:35:35;;;;;;;13.82;2.65;;;;;;;3.71;100.00;100994.16;6053183;29;20041;-84
2022/01/30 04:39:08;;;;;;;11.43;2.17;;;;;;;3.66;100.00;100974.69;6052480;29;20049;-84
2022/01/30 04:53:52;;;;;;;11.38;1.88;;;;;;;3.57;100.00;100993.00;6036501;29;20147;-84
2022/01/30 05:04:42;;;;;;;20.98;4.10;;;;;;;3.37;100.00;100998.94;6048065;29;20518;-84
2022/01/30 05:08:02;;;;;;;15.63;3.95;;;;;;;3.40;100.00;100990.31;6043890;29;20072;-84
2022/01/30 05:11:24;;;;;;;15.18;3.70;;;;;;;3.48;100.00;101023.25;6046659;29;20105;-84
2022/01/30 05:14:36;;;;;;;14.30;2.90;;;;;;;3.41;100.00;100985.13;6046874;29;20105;-84
2022/01/30 05:17:59;;;;;;;16.35;3.58;;;;;;;3.29;100.00;101000.16;6052380;29;20053;-84
2022/01/30 05:21:20;;;;;;;11.68;2.58;;;;;;;3.32;100.00;101020.50;6053199;29;20053;-84
2022/01/30 05:24:30;;;;;;;16.65;3.58;;;;;;;3.29;100.00;101005.28;6035769;29;20049;-84
2022/01/30 05:27:48;;;;;;;15.27;3.05;;;;;;;3.40;100.00;101010.78;6054672;29;20049;-84
2022/01/30 05:31:13;;;;;;;21.23;4.00;;;;;;;3.36;100.00;101034.84;6043224;29;20045;-84
2022/01/30 05:34:34;;;;;;;17.63;3.95;;;;;;;3.48;100.00;101021.53;6050414;29;20136;-84
2022/01/30 05:37:49;;;;;;;26.67;4.03;;;;;;;3.57;100.00;101031.38;6052333;29;20104;-84
2022/01/30 05:41:21;;;;;;;9.35;2.70;;;;;;;3.57;100.00;101053.59;6018560;29;20060;-84
2022/01/30 05:44:52;;;;;;;20.25;3.50;;;;;;;3.50;100.00;101047.88;6036208;29;20054;-84
2022/01/30 05:48:15;;;;;;;13.65;2.92;;;;;;;3.42;100.00;101050.75;6051649;29;20064;-84
2022/01/30 05:51:35;;;;;;;18.73;3.58;;;;;;;3.34;100.00;101054.53;6054925;29;20489;-84
2022/01/30 05:54:44;;;;;;;20.48;3.40;;;;;;;3.30;100.00;101073.44;6032177;29;20518;-84
2022/01/30 05:57:47;;;;;;;20.00;3.38;;;;;;;3.24;100.00;101064.31;6045170;29;20106;-84
2022/01/30 06:00:55;;;;;;;21.08;3.70;;;;;;;3.22;100.00;101082.25;6057021;29;20291;-84
2022/01/30 06:03:57;;;;;;;27.02;3.72;;;;;;;3.15;100.00;101070.59;6062526;29;20049;-84
2022/01/30 06:07:01;;;;;;;17.27;3.30;;;;;;;3.09;100.00;101077.69;6047588;29;20105;-84
2022/01/30 06:10:04;;;;;;;23.90;4.53;;;;;;;3.07;100.00;101090.53;6060866;29;20544;-84
2022/01/30 06:13:06;;;;;;;19.10;3.63;;;;;;;2.97;100.00;101109.69;6039428;29;20125;-84
2022/01/30 06:16:09;;;;;;;16.48;3.72;;;;;;;2.97;100.00;101119.91;6045295;29;20160;-84
2022/01/30 06:19:26;;;;;;;20.50;4.40;;;;;;;2.98;100.00;101111.34;6044077;29;20789;-84
2022/01/30 06:22:47;;;;;;;15.95;3.83;;;;;;;2.83;100.00;101099.97;6042168;29;20046;-84
2022/01/30 06:26:15;;;;;;;13.70;2.67;;;;;;;2.89;100.00;101086.97;6048092;29;20193;-84
2022/01/30 06:29:36;;;;;;;22.98;4.18;;;;;;;2.85;100.00;101076.91;6050694;29;20048;-84
2022/01/30 06:33:01;;;;;;;22.77;4.82;;;;;;;2.76;100.00;101083.22;6050940;29;20055;-84
2022/01/30 06:36:32;;;;;;;17.95;3.92;;;;;;;2.84;100.00;101070.97;5998122;29;20546;-84
2022/01/30 06:39:53;;;;;;;21.85;4.00;;;;;;;2.82;100.00;101084.69;6051390;29;20057;-84
2022/01/30 06:43:15;;;;;;;24.08;4.80;;;;;;;2.84;100.00;101085.47;6049156;29;20080;-84
2022/01/30 06:46:35;;;;;;;19.75;3.90;;;;;;;2.80;100.00;101077.06;6051201;29;20045;-84
2022/01/30 06:49:56;;;;;;;16.92;3.97;;;;;;;2.82;100.00;101082.16;6051335;29;20037;-84
2022/01/30 06:53:16;;;;;;;27.92;5.25;;;;;;;2.83;100.00;101068.47;6051266;29;20072;-84
2022/01/30 06:56:25;;;;;;;24.63;4.32;;;;;;;2.78;100.00;101077.16;6051051;29;20044;-84
2022/01/30 06:59:45;;;;;;;;;;;;;;;2.89;100.00;101052.91;6051410;29;20049;-84
2022/01/30 07:03:12;;;;;;;18.00;3.58;;;;;;;2.76;100.00;101073.81;6050648;29;19951;-84
2022/01/30 07:06:41;;;;;;;20.40;3.83;;;;;;;2.85;100.00;101064.13;6026686;29;20052;-84
2022/01/30 07:09:43;;;;;;;17.45;4.00;;;;;;;2.78;100.00;101055.84;6052921;29;20060;-84
2022/01/30 07:12:46;;;;;;;29.30;5.00;;;;;;;2.90;100.00;101049.44;6041427;29;20082;-84
2022/01/30 07:15:47;;;;;;;22.67;4.38;;;;;;;2.95;100.00;101071.38;6053592;29;20044;-84
2022/01/30 07:18:49;;;;;;;19.80;3.90;;;;;;;2.95;100.00;101052.66;6054352;29;20045;-84
2022/01/30 07:21:53;;;;;;;26.90;4.28;;;;;;;2.97;100.00;101100.28;6062263;29;20049;-84
2022/01/30 07:24:56;;;;;;;24.77;5.60;;;;;;;3.00;100.00;101086.53;6032782;29;20195;-84
2022/01/30 07:27:57;;;;;;;17.50;3.88;;;;;;;3.04;100.00;101126.47;6039454;29;20049;-84
2022/01/30 07:30:59;;;;;;;20.95;5.10;;;;;;;3.19;100.00;101135.28;6030414;29;20520;-84
2022/01/30 07:34:02;;;;;;;18.75;5.20;;;;;;;3.20;100.00;101124.97;6033669;29;20053;-84
2022/01/30 07:37:05;;;;;;;20.95;4.05;;;;;;;3.23;100.00;101124.03;6039712;29;20757;-84
2022/01/30 07:40:07;;;;;;;23.50;3.60;;;;;;;3.25;100.00;101152.94;6050001;29;20057;-84
2022/01/30 07:43:10;;;;;;;19.00;4.57;;;;;;;3.30;100.00;101127.19;6052024;29;20514;-84
2022/01/30 07:46:21;;;;;;;25.17;5.70;;;;;;;3.31;100.00;101132.25;6048631;29;20057;-84
2022/01/30 07:49:23;;;;;;;18.50;3.75;;;;;;;3.35;100.00;101133.78;6050394;29;20085;-84
2022/01/30 07:52:25;;;;;;;22.92;4.70;;;;;;;3.32;100.00;101161.22;6050009;29;20053;-84
2022/01/30 07:55:27;;;;;;;26.08;4.38;;;;;;;3.41;100.00;101153.19;6047437;29;20057;-84
2022/01/30 07:58:28;;;;;;;17.55;5.10;;;;;;;3.47;100.00;101154.69;6044837;29;20045;-84
2022/01/30 08:01:30;;;;;;;24.08;3.95;;;;;;;3.56;100.00;101165.38;6036519;29;20056;-84
2022/01/30 08:04:33;;;;;;;27.45;4.68;;;;;;;3.47;100.00;101170.03;6048738;29;20049;-84
2022/01/30 08:07:35;;;;;;;19.10;3.97;;;;;;;3.53;100.00;101175.75;6047368;29;20054;-84
2022/01/30 08:10:37;;;;;;;26.00;4.00;;;;;;;3.52;100.00;101206.50;6041295;29;20113;-84
2022/01/30 08:13:39;;;;;;;26.67;5.43;;;;;;;3.53;100.00;101198.78;6042219;29;20056;-84
2022/01/30 08:16:41;;;;;;;23.40;4.57;;;;;;;3.56;100.00;101201.22;6051934;29;20162;-84
2022/01/30 08:19:46;;;;;;;20.10;4.03;;;;;;;3.60;100.00;101228.38;6063597;29;20116;-84
2022/01/30 08:22:50;;;;;;;22.35;4.32;;;;;;;3.76;100.00;101220.91;6045148;29;20045;-84
2022/01/30 08:25:53;;;;;;;19.98;3.60;;;;;;;3.87;100.00;101215.38;6047061;29;20056;-84
2022/01/30 08:28:55;;;;;;;25.55;4.68;;;;;;;3.83;100.00;101234.31;6053555;29;20052;-84
2022/01/30 08:31:58;;;;;;;26.70;5.13;;;;;;;3.83;100.00;101242.84;6055985;29;20053;-84
2022/01/30 08:35:00;;;;;;;25.52;4.32;;;;;;;4.03;100.00;101243.78;6053386;29;20076;-84
2022/01/30 08:38:02;;;;;;;23.15;4.13;;;;;;;4.03;100.00;101236.91;6057706;29;20545;-84
2022/01/30 08:41:05;;;;;;;21.45;4.15;;;;;;;4.05;100.00;101230.00;6058310;29;20048;-84
2022/01/30 08:44:07;;;;;;;22.52;4.28;;;;;;;4.08;100.00;101231.63;6054462;29;20055;-84
2022/01/30 08:47:09;;;;;;;25.15;4.15;;;;;;;4.07;100.00;101247.88;6034555;29;20049;-84
2022/01/30 08:50:13;;;;;;;18.00;4.22;;;;;;;4.20;100.00;101240.50;6053225;29;20049;-84
2022/01/30 08:53:16;;;;;;;24.17;4.70;;;;;;;4.21;100.00;101243.03;6048904;29;20041;-84
2022/01/30 08:56:21;;;;;;;21.88;3.95;;;;;;;4.16;100.00;101255.19;6046575;29;20055;-84
2022/01/30 08:59:23;;;;;;;21.23;4.60;;;;;;;4.23;100.00;101245.53;6051645;29;20086;-84
2022/01/30 09:02:26;;;;;;;21.95;4.47;;;;;;;4.25;100.00;101274.50;6046834;29;20133;-84
2022/01/30 09:05:29;;;;;;;18.58;4.20;;;;;;;4.28;100.00;101251.31;6039331;29;20630;-84
2022/01/30 09:08:31;;;;;;;18.35;3.75;;;;;;;4.25;100.00;101249.69;6046560;29;20052;-83
2022/01/30 09:11:34;;;;;;;21.20;4.40;;;;;;;4.30;100.00;101240.09;6042457;29;20041;-83
2022/01/30 09:14:44;;;;;;;22.30;4.07;;;;;;;4.35;100.00;101250.16;6056980;29;20052;-83
2022/01/30 09:17:48;;;;;;;25.00;5.90;;;;;;;4.38;100.00;101260.28;6048624;29;20390;-83
2022/01/30 09:20:50;;;;;;;25.08;4.55;;;;;;;4.39;100.00;101271.34;6052518;29;20053;-83
2022/01/30 09:23:52;;;;;;;28.58;4.80;;;;;;;4.40;100.00;101258.50;6049856;29;20853;-83
2022/01/30 09:26:54;;;;;;;23.70;4.63;;;;;;;4.40;100.00;101255.91;6052916;29;20056;-83
2022/01/30 09:29:57;;;;;;;33.65;4.93;;;;;;;4.44;100.00;101284.81;6044899;29;20128;-84
2022/01/30 09:32:59;;;;;;;21.58;4.00;;;;;;;4.52;100.00;101269.94;6050301;29;20045;-83
2022/01/30 09:36:01;;;;;;;19.08;4.93;;;;;;;4.64;100.00;101294.25;6054319;29;20144;-83
2022/01/30 09:39:03;;;;;;;25.48;5.28;;;;;;;4.76;100.00;101278.34;6049616;29;20178;-83
2022/01/30 09:42:07;;;;;;;31.20;6.28;;;;;;;4.80;100.00;101290.13;6053122;29;20086;-83
2022/01/30 09:45:10;;;;;;;22.58;4.35;;;;;;;4.84;100.00;101281.41;6050345;29;20048;-83
2022/01/30 09:48:13;;;;;;;23.65;4.78;;;;;;;4.87;100.00;101314.63;6055682;29;20041;-83
2022/01/30 09:51:15;;;;;;;17.95;4.63;;;;;;;4.89;100.00;101306.84;6055300;29;20043;-84
2022/01/30 09:54:18;;;;;;;18.80;5.05;;;;;;;4.91;100.00;101297.38;6052025;29;20057;-83
2022/01/30 09:57:20;;;;;;;26.10;4.10;;;;;;;4.82;100.00;101303.75;6054230;29;20061;-83
2022/01/30 10:00:23;;;;;;;20.92;4.43;;;;;;;4.90;100.00;101304.25;6058211;29;20443;-87
2022/01/30 10:03:32;;;;;;;29.58;5.15;;;;;;;4.97;100.00;101297.94;6040738;29;20052;-84
2022/01/30 10:07:01;;;;;;;21.98;5.28;;;;;;;5.00;100.00;101284.16;6060054;29;20078;-83
2022/01/30 10:10:12;;;;;;;25.30;4.70;;;;;;;5.05;100.00;101302.75;6056997;29;20056;-84
2022/01/30 10:13:14;;;;;;;22.15;3.97;;;;;;;4.98;100.00;101321.88;6052016;29;20042;-84
2022/01/30 10:16:17;;;;;;;21.50;4.35;;;;;;;5.00;100.00;101317.50;6043012;29;20044;-84
2022/01/30 10:19:28;;;;;;;27.05;4.38;;;;;;;5.12;100.00;101331.56;6048053;29;20051;-83
2022/01/30 10:22:34;;;;;;;20.83;4.50;;;;;;;5.19;100.00;101322.66;6051388;29;20049;-84
2022/01/30 10:25:38;;;;;;;24.88;4.68;;;;;;;5.17;100.00;101327.88;6051125;29;20048;-84
2022/01/30 10:28:42;;;;;;;22.05;5.07;;;;;;;5.29;100.00;101331.66;6053060;29;20045;-84
2022/01/30 10:32:08;;;;;;;18.92;4.82;;;;;;;5.29;100.00;101326.53;6050035;29;20052;-84
2022/01/30 10:35:10;;;;;;;31.30;6.38;;;;;;;5.26;100.00;101329.19;6065695;29;20049;-84
2022/01/30 10:38:37;;;;;;;27.38;4.25;;;;;;;5.37;100.00;101333.88;6054194;29;20052;-84
2022/01/30 10:41:54;;;;;;;34.20;4.82;;;;;;;5.33;100.00;101330.59;6045432;29;20077;-84
2022/01/30 10:44:58;;;;;;;30.33;6.53;;;;;;;5.36;100.00;101325.31;6050517;29;20049;-84
2022/01/30 10:48:21;;;;;;;17.38;4.50;;;;;;;5.39;100.00;101350.88;6048275;29;20034;-84
2022/01/30 10:51:35;;;;;;;26.23;4.90;;;;;;;5.47;100.00;101339.44;6046269;29;20089;-84
2022/01/30 10:54:37;;;;;;;18.60;4.80;;;;;;;5.41;100.00;101340.53;6052313;29;20427;-84
2022/01/30 10:57:41;;;;;;;24.35;4.35;;;;;;;5.45;100.00;101342.06;6048079;29;20045;-84
2022/01/30 11:00:44;;;;;;;29.02;4.72;;;;;;;5.42;100.00;101355.03;6052094;29;20045;-84
2022/01/30 11:03:51;;;;;;;32.85;4.70;;;;;;;5.40;100.00;101339.69;6046197;29;20065;-84
2022/01/30 11:06:54;;;;;;;27.05;5.20;;;;;;;5.39;100.00;101342.31;6045353;29;20041;-84
2022/01/30 11:10:02;;;;;;;25.08;5.53;;;;;;;5.46;100.00;101366.00;6046213;29;20053;-88
2022/01/30 11:13:31;;;;;;;26.23;4.72;;;;;;;5.45;100.00;101354.06;6047524;29;20538;-84
2022/01/30 11:19:58;;;;;;;33.25;5.65;;;;;;;5.32;100.00;101364.88;6043131;29;20053;-84
2022/01/30 11:23:02;;;;;;;26.90;5.30;;;;;;;5.26;100.00;101359.16;6049421;29;20045;-84
2022/01/30 11:26:04;;;;;;;27.35;5.22;;;;;;;5.23;100.00;101384.97;6051199;29;20490;-84
2022/01/30 11:29:09;;;;;;;27.58;5.75;;;;;;;5.22;100.00;101376.44;6050890;29;20037;-84
2022/01/30 11:32:21;;;;;;;24.92;5.10;;;;;;;5.27;100.00;101384.78;6046566;29;20040;-84
2022/01/30 11:35:27;;;;;;;22.45;4.60;;;;;;;5.31;100.00;101382.91;6047724;29;20065;-84
2022/01/30 11:38:29;;;;;;;24.67;4.97;;;;;;;5.25;100.00;101373.75;6049212;29;20413;-84
2022/01/30 11:41:34;;;;;;;29.52;5.40;;;;;;;5.21;100.00;101379.91;6049463;29;20060;-84
2022/01/30 11:44:38;;;;;;;25.35;4.20;;;;;;;5.23;100.00;101397.81;6047538;29;20100;-84
2022/01/30 11:47:52;;;;;;;20.45;4.75;;;;;;;5.23;100.00;101385.81;6045935;29;20181;-84
2022/01/30 11:51:03;;;;;;;28.40;5.22;;;;;;;5.29;100.00;101392.41;6050072;29;20443;-84
2022/01/30 11:54:46;;;;;;;24.08;4.65;;;;;;;5.30;100.00;101418.00;6051362;29;21765;-84
2022/01/30 11:57:48;;;;;;;22.98;4.88;;;;;;;5.35;98.67;101408.38;6048338;29;20060;-84
2022/01/30 12:00:51;;;;;;;27.45;4.95;;;;;;;5.42;100.00;101413.28;6051180;29;20056;-84
2022/01/30 12:04:12;;;;;;;23.27;4.50;;;;;;;5.33;100.00;101424.75;6050049;29;20054;-84
2022/01/30 12:07:35;;;;;;;28.25;5.65;;;;;;;5.36;100.00;101410.03;6048290;29;20049;-84
2022/01/30 12:10:38;;;;;;;26.02;6.10;;;;;;;5.38;97.22;101404.84;6049874;29;20033;-84
2022/01/30 12:13:44;;;;;;;29.13;5.43;;;;;;;5.36;97.85;101422.88;6042880;29;20050;-84
2022/01/30 12:17:06;;;;;;;28.40;5.97;;;;;;;5.41;96.49;101420.13;6043363;29;20060;-84
2022/01/30 12:20:09;;;;;;;25.10;4.78;;;;;;;5.39;99.40;101417.63;6047034;29;20733;-84
2022/01/30 12:23:27;;;;;;;26.15;5.60;;;;;;;5.40;97.94;101405.63;6047034;29;20090;-84
2022/01/30 12:26:50;;;;;;;24.75;4.85;;;;;;;5.46;96.34;101409.66;6046567;29;20105;-84
2022/01/30 12:29:52;;;;;;;31.30;5.05;;;;;;;5.46;94.12;101420.75;6066199;29;20057;-84
2022/01/30 12:32:55;;;;;;;17.85;4.32;;;;;;;5.52;93.46;101399.13;6051667;29;20037;-84
2022/01/30 12:35:58;;;;;;;25.98;4.85;;;;;;;5.55;90.81;101409.25;6052065;29;20045;-84
2022/01/30 12:39:08;;;;;;;27.85;4.90;;;;;;;5.57;87.69;101405.72;6052195;29;20308;-84
2022/01/30 12:42:17;;;;;;;27.27;5.18;;;;;;;5.58;88.58;101409.94;6049099;29;20053;-84
2022/01/30 12:45:19;;;;;;;22.77;4.63;;;;;;;5.62;90.94;101402.97;6054115;29;20294;-84
2022/01/30 12:48:21;;;;;;;16.70;4.95;;;;;;;5.55;95.81;101409.25;6051717;29;20045;-84
2022/01/30 12:51:23;;;;;;;30.67;4.45;;;;;;;5.47;93.02;101404.47;6051692;29;20048;-84
2022/01/30 12:54:29;;;;;;;31.45;5.03;;;;;;;5.49;92.95;101397.53;6049122;29;20077;-84
2022/01/30 12:57:31;;;;;;;21.80;4.10;;;;;;;5.45;93.10;101411.38;6050735;29;20638;-84
2022/01/30 13:00:35;;;;;;;20.92;4.50;;;;;;;5.44;92.28;101422.56;6052649;29;20056;-84
2022/01/30 13:03:37;;;;;;;23.73;5.57;;;;;;;5.44;90.07;101396.91;6049565;29;20049;-84
2022/01/30 13:06:43;;;;;;;22.70;4.63;;;;;;;5.43;93.55;101392.66;6052186;29;20041;-84
2022/01/30 13:09:46;;;;;;;24.10;4.45;;;;;;;5.38;93.73;101380.00;6048561;29;20108;-84
2022/01/30 13:12:49;;;;;;;20.55;4.38;;;;;;;5.40;89.69;101400.47;6051785;29;20045;-84
2022/01/30 13:15:57;;;;;;;31.83;5.85;;;;;;;5.42;91.79;101372.19;6051205;29;20124;-84
2022/01/30 13:19:01;;;;;;;22.98;3.97;;;;;;;5.35;93.10;101380.13;6043317;29;20060;-84
2022/01/30 13:22:05;;;;;;;28.63;5.18;;;;;;;5.34;93.47;101378.50;6039525;29;20129;-84
2022/01/30 13:25:13;;;;;;;24.80;4.47;;;;;;;5.29;94.05;101398.38;6048241;29;20052;-84
2022/01/30 13:28:26;;;;;;;29.00;5.78;;;;;;;5.34;96.34;101395.59;6055579;29;20037;-84
2022/01/30 13:31:30;;;;;;;34.25;4.82;;;;;;;5.34;95.17;101396.47;6053058;29;20042;-84
2022/01/30 13:34:33;;;;;;;26.88;4.72;;;;;;;5.29;94.64;101407.78;6045070;29;20045;-84
2022/01/30 13:37:38;;;;;;;21.15;4.57;;;;;;;5.29;93.37;101413.78;6046215;29;20052;-84
2022/01/30 13:40:53;;;;;;;21.85;5.05;;;;;;;5.26;96.86;101410.50;6046793;29;20049;-84
2022/01/30 13:43:59;;;;;;;27.98;4.90;;;;;;;5.32;93.47;101421.34;6049916;29;20403;-84
2022/01/30 13:47:03;;;;;;;20.98;4.88;;;;;;;5.34;95.34;101416.13;6047751;29;20042;-84
2022/01/30 13:50:15;;;;;;;23.70;4.85;;;;;;;5.33;93.47;101420.44;6051228;29;20145;-84
2022/01/30 13:53:17;;;;;;;27.20;5.20;;;;;;;5.31;91.04;101421.41;6037606;29;20053;-84
2022/01/30 13:56:22;;;;;;;18.52;3.78;;;;;;;5.27;90.38;101422.47;6044340;29;20049;-84
2022/01/30 13:59:29;;;;;;;28.52;5.03;;;;;;;5.25;89.69;101432.78;6037764;29;20053;-84
2022/01/30 14:02:31;;;;;;;21.05;4.43;;;;;;;5.26;86.22;101442.13;6045453;29;20045;-84
2022/01/30 14:05:34;;;;;;;21.50;5.03;;;;;;;5.24;89.19;101430.25;6046685;29;20048;-85
2022/01/30 14:08:48;;;;;;;19.08;4.80;;;;;;;5.26;87.19;101423.34;6042218;29;20045;-84
2022/01/30 14:12:05;;;;;;;20.50;4.00;;;;;;;5.26;85.67;101438.75;6042631;29;20049;-84
2022/01/30 14:15:09;;;;;;;28.92;5.85;;;;;;;5.24;89.19;101410.59;6042287;29;20054;-85
2022/01/30 14:18:17;;;;;;;24.23;4.65;;;;;;;5.22;87.23;101417.50;6038669;29;20095;-85
2022/01/30 14:21:23;;;;;;;19.65;4.03;;;;;;;5.21;88.75;101407.31;6043335;29;20493;-85
2022/01/30 14:24:27;;;;;;;27.75;4.40;;;;;;;5.27;86.49;101423.28;6046579;29;20053;-84
2022/01/30 14:27:34;;;;;;;23.65;4.03;;;;;;;5.35;86.71;101421.22;6049169;29;20203;-84
2022/01/30 14:30:38;;;;;;;22.23;3.42;;;;;;;5.34;87.11;101416.13;6052641;29;20041;-85
2022/01/30 14:33:41;;;;;;;22.05;5.20;;;;;;;5.29;89.07;101452.28;6049810;29;20045;-85
2022/01/30 14:36:49;;;;;;;24.63;5.07;;;;;;;5.30;86.35;101425.72;6046734;29;20061;-85
2022/01/30 14:40:03;;;;;;;16.80;3.90;;;;;;;5.21;86.92;101435.53;6047770;29;20455;-84
2022/01/30 14:43:08;;;;;;;26.20;4.65;;;;;;;5.23;88.00;101416.59;6043600;29;20077;-84
2022/01/30 14:46:11;;;;;;;21.10;3.65;;;;;;;5.17;86.30;101437.41;6047812;29;20097;-84
2022/01/30 14:49:21;;;;;;;17.80;4.10;;;;;;;5.17;87.15;101429.72;6038583;29;20049;-85
2022/01/30 14:52:24;;;;;;;19.40;3.30;;;;;;;5.13;83.58;101433.28;6053009;29;20113;-84
2022/01/30 14:55:26;;;;;;;18.75;3.45;;;;;;;5.04;86.60;101420.84;6048110;29;20053;-84
2022/01/30 14:58:42;;;;;;;22.63;4.10;;;;;;;5.03;86.29;101422.56;6051015;29;20065;-85
2022/01/30 15:01:44;;;;;;;24.65;4.53;;;;;;;5.07;89.75;101419.00;6048765;29;20355;-85
2022/01/30 15:04:55;;;;;;;22.55;4.22;;;;;;;5.03;89.29;101419.19;6049152;29;20106;-84
2022/01/30 15:07:59;;;;;;;18.23;3.75;;;;;;;5.01;88.00;101426.09;6051242;29;20136;-84
2022/01/30 15:11:02;;;;;;;24.70;4.78;;;;;;;4.86;90.20;101420.69;6034146;29;20034;-84
2022/01/30 15:14:05;;;;;;;24.73;4.07;;;;;;;4.81;92.57;101414.09;6058844;29;20045;-84
2022/01/30 15:17:18;;;;;;;22.73;5.00;;;;;;;4.88;90.51;101413.78;6044075;29;20411;-85
2022/01/30 15:20:36;;;;;;;32.20;4.55;;;;;;;4.80;94.45;101415.81;6043201;29;20149;-85